Details From CYEG - Edmonton Intl
To CYZH - Slave Lake
Flight Number -
Tags Generated
Created
Modified
Stats Distance 126 nm / 234 km
Max Altitude 0 ft / 0 m
Waypoints 2
Social Downloads 1
Likes 0
Share VATSIM

Download

Looking for another format? Having issues loading an existing format? Contact us
Advertisement - Login to hide

Notes

Generated

Route

CYEG CYZH

ID Type Via Altitude Latitude Longitude Leg Dist Tot Dist Heading (true) Name
O CYEG APT - 0 ft / 0 m 53.30966˚ -113.59611˚ - 0 nm - -
O CYZH APT - 0 ft / 0 m 55.29648˚ -114.79041˚ 126 nm 126 nm 341° / 340° -

Altitude Profile

Advertisement - Login to hide

CYEG

Details ICAO CYEG (YEG)
Name Edmonton Intl
Region Canada
Timezone America/Edmonton (UTC-6.0)
Stats Elevation 2,373 ft / 723 m (AMSL)
Location 53.309882° -113.580131°
Runways 2
Magnetic Variation 14.273° E

METAR

CYEG 241000Z 15010KT 15SM FEW080CB SCT100 BKN120 17/07 A2971 RMK CB2ACC1AC2 FRQ LTGIC S-SW SLP052 DENSITY ALT 3500FT

Decode

TAF

TAF CYEG 240838Z 2409/2506 13010KT P6SM VCSH SCT080CB BKN100 TEMPO 2409/2413 VRB15G25KT P6SM -TSRA BKN080CB FM241300 12010KT P6SM SCT100 BKN140 TEMPO 2413/2415 P6SM -SHRA BKN090 PROB40 2413/2414 VRB20G30KT P6SM -TSRA BKN080CB FM241500 12005KT P6SM FEW100 TEMPO 2415/2419 BKN100 BECMG 2415/2417 14012KT FM241900 12012KT P6SM SCT080 BKN230 TEMPO 2419/2421 P6SM -SHRA BKN080 PROB30 2419/2421 VRB20G30KT 4SM TSRA BKN070CB FM242100 07008KT P6SM -SHRA BKN070 TEMPO 2421/2503 VRB20G30KT 4SM TSRA BKN060CB BECMG 2501/2503 29010KT FM250400 29015KT P6SM SCT090 BKN120 RMK NXT FCST BY 241200Z

Decode

Departure Runways

ID Width Length Bearing (true) Bearing (mag) Surface Threshold Offset Overrun Length
02 200 ft / 61 m 11,010 ft / 3,356 m 35.39° 21.12° Asphalt 0 ft / 0 m 0 ft / 0 m
12 200 ft / 61 m 10,210 ft / 3,112 m 135.18° 120.91° Asphalt 0 ft / 0 m 0 ft / 0 m
20 200 ft / 61 m 11,010 ft / 3,356 m 215.41° 201.14° Asphalt 0 ft / 0 m 0 ft / 0 m
30 200 ft / 61 m 10,210 ft / 3,112 m 315.21° 300.94° Asphalt 0 ft / 0 m 0 ft / 0 m

CYZH

Details ICAO CYZH (YZH)
Name SLAVE LAKE
Region Canada
Timezone America/Edmonton (UTC-6.0)
Stats Elevation 1,912 ft / 583 m (AMSL)
Location 55.293303° -114.778310°
Runways 1
Magnetic Variation 15.210° E

METAR

CYZH 241000Z AUTO 13006KT 9SM CLR 14/07 A2970 RMK SLP055 DENSITY ALT 2500FT

Decode

TAF

TAF AMD TAF AMD CYZH 240650Z 2407/2419 08004KT P6SM FEW150 TEMPO 2407/2415 2SM HZ FU BECMG 2409/2411 11008KT FM241500 11008KT P6SM SCT120 BKN200 FM241800 15015KT P6SM SCT070 BKN150 RMK FCST BASED ON AUTO OBS. NXT FCST BY 241300Z

Decode

Destination Runways

ID Width Length Bearing (true) Bearing (mag) Surface Threshold Offset Overrun Length
10 100 ft / 30 m 5,535 ft / 1,687 m 114.74° 99.53° Asphalt 0 ft / 0 m 0 ft / 0 m
28 100 ft / 30 m 5,535 ft / 1,687 m 294.76° 279.55° Asphalt 557 ft / 170 m 0 ft / 0 m